Latest Weather Observations for Thevenard

IDS60801

Issued at 8:31 am CDT Friday 23 February 2018 (issued every 30 minutes, with the page automatically refreshed every 10 minutes)

About weather observations | Map of weather stations | Latest weather observations for SA | Other Formats
Station Details ID: 018200 Name: THEVENARD WIND Lat: -32.18 Lon: 133.63 Height: 8.54 m
Data from the previous 72 hours. | See also: Recent months for locations in South Australia
Date/Time
CDT
Temp
°C
App
Temp
°C
Dew
Point
°C
Rel
Hum
%
Delta-T
°C
Wind Press
QNH
hPa
Press
MSL
hPa
Rain since
9am
mm
Dir  Spd
km/h
Gust
km/h
Spd
kts
Gust
kts
23/08:30am - - - - - SW 39 48 21 26 - - -
23/08:00am - - - - - SW 46 56 25 30 - - -
23/07:30am - - - - - SW 41 52 22 28 - - -
23/07:00am - - - - - WSW 43 52 23 28 - - -
23/06:30am - - - - - WSW 43 52 23 28 - - -
23/06:00am - - - - - WSW 43 54 23 29 - - -
23/05:30am - - - - - WSW 43 54 23 29 - - -
23/05:00am - - - - - WSW 43 56 23 30 - - -
23/04:30am - - - - - WSW 44 56 24 30 - - -
23/04:00am - - - - - WSW 39 50 21 27 - - -
23/03:30am - - - - - W 39 48 21 26 - - -
23/03:00am - - - - - W 41 50 22 27 - - -
23/02:30am - - - - - W 41 50 22 27 - - -
23/02:00am - - - - - W 39 48 21 26 - - -
23/01:30am - - - - - WNW 37 44 20 24 - - -
23/01:00am - - - - - WNW 39 46 21 25 - - -
23/12:30am - - - - - W 46 54 25 29 - - -
23/12:00am - - - - - W 39 48 21 26 - - -
 
Date/Time
CDT
Temp
°C
App
Temp
°C
Dew
Point
°C
Rel
Hum
%
Delta-T
°C
Wind Press
QNH
hPa
Press
MSL
hPa
Rain since
9am
mm
Dir  Spd
km/h
Gust
km/h
Spd
kts
Gust
kts
22/11:30pm - - - - - WNW 37 48 20 26 - - -
22/11:00pm - - - - - WNW 39 48 21 26 - - -
22/10:30pm - - - - - WNW 37 44 20 24 - - -
22/10:00pm - - - - - WNW 37 44 20 24 - - -
22/09:30pm - - - - - WNW 35 44 19 24 - - -
22/09:18pm - - - - - WSW 19 43 10 23 - - -
22/09:00pm - - - - - SSW 17 20 9 11 - - -
22/08:30pm - - - - - SW 24 28 13 15 - - -
22/08:00pm - - - - - ESE 17 19 9 10 - - -
22/07:30pm - - - - - ESE 13 17 7 9 - - -
22/07:00pm - - - - - SE 17 20 9 11 - - -
22/06:30pm - - - - - SSE 22 24 12 13 - - -
22/06:00pm - - - - - SSE 24 30 13 16 - - -
22/05:30pm - - - - - S 20 24 11 13 - - -
22/05:00pm - - - - - SSW 30 35 16 19 - - -
22/04:30pm - - - - - SSW 35 43 19 23 - - -
22/04:00pm - - - - - SSW 32 41 17 22 - - -
22/03:30pm - - - - - SSW 41 54 22 29 - - -
22/03:15pm - - - - - NW 33 63 18 34 - - -
22/03:13pm - - - - - NNW 33 44 18 24 - - -
22/03:00pm - - - - - NNW 41 57 22 31 - - -
22/02:58pm - - - - - NNW 43 57 23 31 - - -
22/02:30pm - - - - - N 35 52 19 28 - - -
22/02:16pm - - - - - NNE 46 65 25 35 - - -
22/02:00pm - - - - - NNE 43 56 23 30 - - -
22/01:36pm - - - - - NNE 41 63 22 34 - - -
22/01:30pm - - - - - NNE 41 50 22 27 - - -
22/01:00pm - - - - - NNE 44 57 24 31 - - -
22/12:30pm - - - - - NNE 46 67 25 36 - - -
22/12:12pm - - - - - NNE 46 67 25 36 - - -
22/12:00pm - - - - - NNE 44 57 24 31 - - -
22/11:35am - - - - - NNE 50 69 27 37 - - -
22/11:30am - - - - - NNE 50 65 27 35 - - -
22/11:17am - - - - - NE 46 65 25 35 - - -
22/11:00am - - - - - NE 50 65 27 35 - - -
22/10:31am - - - - - NE 46 65 25 35 - - -
22/10:30am - - - - - NE 46 63 25 34 - - -
22/10:04am - - - - - NE 39 59 21 32 - - -
22/10:00am - - - - - NE 37 54 20 29 - - -
22/09:30am - - - - - ENE 30 35 16 19 - - -
22/09:00am - - - - - ESE 24 28 13 15 - - -
22/08:30am - - - - - ESE 26 32 14 17 - - -
22/08:00am - - - - - ESE 28 33 15 18 - - -
22/07:30am - - - - - ESE 32 39 17 21 - - -
22/07:00am - - - - - ESE 28 37 15 20 - - -
22/06:30am - - - - - SE 30 35 16 19 - - -
22/06:00am - - - - - SE 35 41 19 22 - - -
22/05:30am - - - - - SE 32 39 17 21 - - -
22/05:00am - - - - - SE 32 35 17 19 - - -
22/04:30am - - - - - SE 30 35 16 19 - - -
22/04:00am - - - - - SE 19 22 10 12 - - -
22/03:30am - - - - - ESE 17 20 9 11 - - -
22/03:00am - - - - - ESE 17 24 9 13 - - -
22/02:30am - - - - - ESE 24 30 13 16 - - -
22/02:00am - - - - - ESE 28 35 15 19 - - -
22/01:30am - - - - - E 35 41 19 22 - - -
22/01:00am - - - - - E 37 44 20 24 - - -
22/12:30am - - - - - ESE 43 52 23 28 - - -
22/12:00am - - - - - E 43 54 23 29 - - -
 
Date/Time
CDT
Temp
°C
App
Temp
°C
Dew
Point
°C
Rel
Hum
%
Delta-T
°C
Wind Press
QNH
hPa
Press
MSL
hPa
Rain since
9am
mm
Dir  Spd
km/h
Gust
km/h
Spd
kts
Gust
kts
21/11:30pm - - - - - ESE 41 54 22 29 - - -
21/11:00pm - - - - - ESE 39 50 21 27 - - -
21/10:30pm - - - - - ESE 35 48 19 26 - - -
21/10:00pm - - - - - ESE 35 50 19 27 - - -
21/09:30pm - - - - - ESE 39 50 21 27 - - -
21/09:18pm - - - - - ESE 41 59 22 32 - - -
21/09:00pm - - - - - ESE 44 59 24 32 - - -
21/08:30pm - - - - - ESE 48 61 26 33 - - -
21/08:00pm - - - - - SE 46 59 25 32 - - -
21/07:30pm - - - - - SE 48 59 26 32 - - -
21/07:00pm - - - - - SE 46 57 25 31 - - -
21/06:30pm - - - - - SE 50 61 27 33 - - -
21/06:00pm - - - - - SE 48 59 26 32 - - -
21/05:30pm - - - - - SE 46 56 25 30 - - -
21/05:00pm - - - - - SE 43 52 23 28 - - -
21/04:30pm - - - - - SE 37 46 20 25 - - -
21/04:00pm - - - - - SE 43 50 23 27 - - -
21/03:30pm - - - - - SSE 41 52 22 28 - - -
21/03:00pm - - - - - SSE 39 46 21 25 - - -
21/02:30pm - - - - - SSE 37 43 20 23 - - -
21/02:00pm - - - - - SSE 32 39 17 21 - - -
21/01:30pm - - - - - SSE 26 30 14 16 - - -
21/01:00pm - - - - - SE 28 32 15 17 - - -
21/12:30pm - - - - - SE 22 28 12 15 - - -
21/12:00pm - - - - - SE 22 28 12 15 - - -
21/11:30am - - - - - SE 20 24 11 13 - - -
21/11:00am - - - - - SE 22 26 12 14 - - -
21/10:30am - - - - - SE 39 48 21 26 - - -
21/10:00am - - - - - SSE 26 32 14 17 - - -
21/09:30am - - - - - SE 33 39 18 21 - - -
21/09:00am - - - - - SE 33 37 18 20 - - -
21/08:30am - - - - - SSE 24 28 13 15 - - -
21/08:00am - - - - - SSE 28 32 15 17 - - -
21/07:30am - - - - - SSE 30 33 16 18 - - -
21/07:00am - - - - - SE 28 32 15 17 - - -
21/06:30am - - - - - SSE 20 24 11 13 - - -
21/06:00am - - - - - SSE 19 22 10 12 - - -
21/05:30am - - - - - SE 26 30 14 16 - - -
21/05:00am - - - - - SE 30 35 16 19 - - -
21/04:30am - - - - - SE 32 35 17 19 - - -
21/04:00am - - - - - SE 30 33 16 18 - - -
21/03:30am - - - - - SSE 28 33 15 18 - - -
21/03:00am - - - - - SSE 28 32 15 17 - - -
21/02:30am - - - - - SSE 28 32 15 17 - - -
21/02:00am - - - - - SSE 33 37 18 20 - - -
21/01:30am - - - - - SE 33 39 18 21 - - -
21/01:00am - - - - - SSE 32 35 17 19 - - -
21/12:30am - - - - - S 24 30 13 16 - - -
21/12:00am - - - - - SE 30 35 16 19 - - -
 
Date/Time
CDT
Temp
°C
App
Temp
°C
Dew
Point
°C
Rel
Hum
%
Delta-T
°C
Wind Press
QNH
hPa
Press
MSL
hPa
Rain since
9am
mm
Dir  Spd
km/h
Gust
km/h
Spd
kts
Gust
kts
20/11:30pm - - - - - SSE 30 35 16 19 - - -
20/11:00pm - - - - - SE 33 41 18 22 - - -
20/10:30pm - - - - - SSE 33 39 18 21 - - -
20/10:00pm - - - - - SSE 35 39 19 21 - - -
20/09:30pm - - - - - SSE 33 37 18 20 - - -
20/09:00pm - - - - - SSE 35 43 19 23 - - -
20/08:30pm - - - - - SE 37 44 20 24 - - -
20/08:00pm - - - - - SE 43 52 23 28 - - -
20/07:30pm - - - - - SSE 37 46 20 25 - - -
20/07:00pm - - - - - SSE 32 39 17 21 - - -
20/06:30pm - - - - - SE 35 43 19 23 - - -
20/06:00pm - - - - - SE 44 54 24 29 - - -
20/05:30pm - - - - - SE 39 50 21 27 - - -
20/05:00pm - - - - - SSE 39 50 21 27 - - -
20/04:30pm - - - - - SSE 37 43 20 23 - - -
20/04:00pm - - - - - SSE 33 39 18 21 - - -
20/03:30pm - - - - - SSE 33 39 18 21 - - -
20/03:00pm - - - - - SSE 32 37 17 20 - - -
20/02:30pm - - - - - SSE 28 33 15 18 - - -
20/02:00pm - - - - - SSE 26 30 14 16 - - -
20/01:30pm - - - - - SSE 24 28 13 15 - - -
20/01:00pm - - - - - SSE 26 30 14 16 - - -
20/12:30pm - - - - - SSE 24 28 13 15 - - -
20/12:00pm - - - - - SSE 20 22 11 12 - - -
20/11:30am - - - - - SSE 19 22 10 12 - - -
20/11:00am - - - - - SSE 15 17 8 9 - - -
20/10:30am - - - - - SSE 13 15 7 8 - - -
20/10:00am - - - - - SE 9 11 5 6 - - -
20/09:30am - - - - - SE 4 6 2 3 - - -
20/09:00am - - - - - E 9 13 5 7 - - -

Other Formats:

Comma delimited format used in spreadsheet applications
http://www.bom.gov.au/fwo/IDS60801/IDS60801.95653.axf

JavaScript Object Notation format (JSON) in row-major order
http://www.bom.gov.au/fwo/IDS60801/IDS60801.95653.json